Time;durP1;ratioP1;P1;durP2;ratioP2;P2;SDS_P1;SDS_P2;PMS_P1;PMS_P2;Temp;Humidity;BMP_temperature;BMP_pressure;BME280_temperature;BME280_humidity;BME280_pressure;Samples;Min_cycle;Max_cycle;Signal;HPM_P1;HPM_P2
2022/09/16 00:01:17;;;;;;;2.53;2.33;;;;;;;;;;5090150;28;20447;-74
2022/09/16 00:03:45;;;;;;;3.63;2.67;;;;;;;;;;5090994;28;20461;-74
2022/09/16 00:06:17;;;;;;;2.93;2.60;;;;;;;;;;5085666;28;20849;-75
2022/09/16 00:08:44;;;;;;;3.63;2.97;;;;;;;;;;5090990;28;20455;-74
2022/09/16 00:11:12;;;;;;;6.20;2.20;;;;;;;;;;5091266;28;20892;-74
2022/09/16 00:13:39;;;;;;;3.63;2.57;;;;;;;;;;5089836;28;20535;-74
2022/09/16 00:16:09;;;;;;;2.77;2.40;;;;;;;;;;5091125;28;20449;-75
2022/09/16 00:18:36;;;;;;;2.70;2.40;;;;;;;;;;5095646;28;20444;-74
2022/09/16 00:21:07;;;;;;;4.53;3.00;;;;;;;;;;5105225;28;20441;-74
2022/09/16 00:23:34;;;;;;;3.40;2.30;;;;;;;;;;5106364;28;20467;-74
2022/09/16 00:26:01;;;;;;;3.60;2.83;;;;;;;;;;5106685;28;20498;-74
2022/09/16 00:28:28;;;;;;;3.00;2.70;;;;;;;;;;5098801;28;20444;-74
2022/09/16 00:30:58;;;;;;;2.93;2.50;;;;;;;;;;5094206;28;20962;-74
2022/09/16 00:33:27;;;;;;;3.60;2.40;;;;;;;;;;5093289;28;20461;-74
2022/09/16 00:36:04;;;;;;;4.50;2.50;;;;;;;;;;5094474;28;20810;-73
2022/09/16 00:38:31;;;;;;;3.73;2.90;;;;;;;;;;5093486;28;20436;-73
2022/09/16 00:40:59;;;;;;;3.33;2.93;;;;;;;;;;5094202;28;20455;-73
2022/09/16 00:43:26;;;;;;;2.90;2.67;;;;;;;;;;5092458;28;20455;-73
2022/09/16 00:45:56;;;;;;;3.37;3.03;;;;;;;;;;5093493;28;20487;-74
2022/09/16 00:48:25;;;;;;;2.30;2.10;;;;;;;;;;5092834;28;20505;-74
2022/09/16 00:50:56;;;;;;;4.03;2.70;;;;;;;;;;5087339;28;20915;-73
2022/09/16 00:53:25;;;;;;;2.67;2.37;;;;;;;;;;5089502;28;20445;-73
2022/09/16 00:55:53;;;;;;;4.13;2.37;;;;;;;;;;5093962;28;20457;-74
2022/09/16 00:58:23;;;;;;;3.30;2.90;;;;;;;;;;5093423;28;20452;-73
2022/09/16 01:00:51;;;;;;;3.10;2.40;;;;;;;;;;5093516;28;20703;-73
2022/09/16 01:03:18;;;;;;;4.90;3.00;;;;;;;;;;5086367;28;20456;-73
2022/09/16 01:05:46;;;;;;;3.43;2.27;;;;;;;;;;5093810;28;20484;-73
2022/09/16 01:08:15;;;;;;;2.73;1.90;;;;;;;;;;5093724;28;20457;-74
2022/09/16 01:10:43;;;;;;;4.70;3.13;;;;;;;;;;5093438;28;20451;-74
2022/09/16 01:13:11;;;;;;;2.50;2.30;;;;;;;;;;5093094;28;20453;-73
2022/09/16 01:15:42;;;;;;;3.30;2.67;;;;;;;;;;5092675;28;20565;-74
2022/09/16 01:18:15;;;;;;;3.40;2.63;;;;;;;;;;5093950;28;20471;-74
2022/09/16 01:20:56;;;;;;;3.23;2.90;;;;;;;;;;5093265;28;20448;-74
2022/09/16 01:23:41;;;;;;;2.77;2.33;;;;;;;;;;5092161;28;20451;-74
2022/09/16 01:26:16;;;;;;;4.77;3.13;;;;;;;;;;5093033;28;20835;-73
2022/09/16 01:28:57;;;;;;;8.37;2.23;;;;;;;;;;5092973;28;20441;-74
2022/09/16 01:31:27;;;;;;;3.00;2.43;;;;;;;;;;5092733;28;20791;-73
2022/09/16 01:33:58;;;;;;;4.23;3.00;;;;;;;;;;5092223;28;20453;-74
2022/09/16 01:36:31;;;;;;;6.07;2.90;;;;;;;;;;5092533;28;20448;-74
2022/09/16 01:39:13;;;;;;;4.10;3.10;;;;;;;;;;5092620;28;20920;-74
2022/09/16 01:41:44;;;;;;;4.13;2.50;;;;;;;;;;5090139;28;20467;-73
2022/09/16 01:44:17;;;;;;;2.60;2.40;;;;;;;;;;5091997;28;20935;-74
2022/09/16 01:46:48;;;;;;;2.87;2.47;;;;;;;;;;5092710;28;20476;-73
2022/09/16 01:49:19;;;;;;;3.43;2.57;;;;;;;;;;5092612;28;20441;-74
2022/09/16 01:51:50;;;;;;;3.87;2.77;;;;;;;;;;5092594;28;21075;-73
2022/09/16 01:54:21;;;;;;;3.17;2.27;;;;;;;;;;5091584;28;20444;-73
2022/09/16 01:56:53;;;;;;;4.10;2.70;;;;;;;;;;5092701;28;20460;-73
2022/09/16 01:59:22;;;;;;;3.13;2.77;;;;;;;;;;5092048;28;20455;-73
2022/09/16 02:01:52;;;;;;;4.83;2.90;;;;;;;;;;5091547;28;20948;-73
2022/09/16 02:04:22;;;;;;;3.63;2.27;;;;;;;;;;5090953;28;20484;-73
2022/09/16 02:06:51;;;;;;;3.33;2.63;;;;;;;;;;5092205;28;20509;-73
2022/09/16 02:09:20;;;;;;;3.37;2.73;;;;;;;;;;5084391;28;20948;-75
2022/09/16 02:11:49;;;;;;;3.60;2.00;;;;;;;;;;5092388;28;20456;-73
2022/09/16 02:14:18;;;;;;;3.30;2.47;;;;;;;;;;5090835;28;20582;-73
2022/09/16 02:16:47;;;;;;;2.40;2.20;;;;;;;;;;5092018;28;20471;-73
2022/09/16 02:19:19;;;;;;;2.60;1.90;;;;;;;;;;5092314;28;20445;-73
2022/09/16 02:21:46;;;;;;;3.13;2.40;;;;;;;;;;5091875;28;20441;-73
2022/09/16 02:24:15;;;;;;;2.63;2.00;;;;;;;;;;5091924;28;20453;-73
2022/09/16 02:26:45;;;;;;;2.70;2.37;;;;;;;;;;5091778;28;20499;-74
2022/09/16 02:29:14;;;;;;;3.17;2.23;;;;;;;;;;5092290;28;20449;-74
2022/09/16 02:31:44;;;;;;;3.80;2.53;;;;;;;;;;5091869;28;20456;-73
2022/09/16 02:34:13;;;;;;;3.70;2.40;;;;;;;;;;5090530;28;20457;-74
2022/09/16 02:36:43;;;;;;;3.23;2.80;;;;;;;;;;5092065;28;20552;-73
2022/09/16 02:39:13;;;;;;;2.60;2.40;;;;;;;;;;5083113;28;20449;-74
2022/09/16 02:41:41;;;;;;;1.70;1.60;;;;;;;;;;5091557;28;20448;-74
2022/09/16 02:44:09;;;;;;;9.10;2.20;;;;;;;;;;5088626;28;20457;-74
2022/09/16 02:46:40;;;;;;;3.80;2.00;;;;;;;;;;5090753;28;20487;-73
2022/09/16 02:49:11;;;;;;;3.33;2.60;;;;;;;;;;5091575;28;20779;-73
2022/09/16 02:51:42;;;;;;;3.93;2.60;;;;;;;;;;5090522;28;20446;-73
2022/09/16 02:54:13;;;;;;;3.47;2.50;;;;;;;;;;5090692;28;20448;-73
2022/09/16 02:56:42;;;;;;;4.43;2.33;;;;;;;;;;5091734;28;20494;-74
2022/09/16 02:59:11;;;;;;;3.00;2.47;;;;;;;;;;5090982;28;20456;-73
2022/09/16 03:01:41;;;;;;;7.63;2.57;;;;;;;;;;5090401;28;20450;-73
2022/09/16 03:04:08;;;;;;;3.00;2.23;;;;;;;;;;5090351;28;20896;-74
2022/09/16 03:06:36;;;;;;;5.03;2.60;;;;;;;;;;5090609;28;21036;-73
2022/09/16 03:09:04;;;;;;;2.27;2.07;;;;;;;;;;5091048;28;20821;-74
2022/09/16 03:11:46;;;;;;;4.90;2.30;;;;;;;;;;5090798;28;20448;-74
2022/09/16 03:14:18;;;;;;;2.33;1.80;;;;;;;;;;5089809;28;20444;-73
2022/09/16 03:16:49;;;;;;;3.07;2.00;;;;;;;;;;5091070;28;20449;-73
2022/09/16 03:19:21;;;;;;;3.20;2.63;;;;;;;;;;5090880;28;20455;-73
2022/09/16 03:21:52;;;;;;;3.97;2.50;;;;;;;;;;5091482;28;20798;-74
2022/09/16 03:24:27;;;;;;;2.40;1.90;;;;;;;;;;5090133;28;20452;-74
2022/09/16 03:26:57;;;;;;;3.93;2.03;;;;;;;;;;5090796;28;20480;-73
2022/09/16 03:29:26;;;;;;;3.40;2.63;;;;;;;;;;5090265;28;20803;-73
2022/09/16 03:31:57;;;;;;;3.60;1.83;;;;;;;;;;5090871;28;20452;-74
2022/09/16 03:34:26;;;;;;;3.53;2.27;;;;;;;;;;5090053;28;20814;-74
2022/09/16 03:36:57;;;;;;;2.60;2.03;;;;;;;;;;5090087;28;20459;-73
2022/09/16 03:39:24;;;;;;;3.00;2.27;;;;;;;;;;5090392;28;20545;-74
2022/09/16 03:41:51;;;;;;;5.50;2.97;;;;;;;;;;5090666;28;20488;-74
2022/09/16 03:44:20;;;;;;;7.77;3.10;;;;;;;;;;5089722;28;20452;-73
2022/09/16 03:46:47;;;;;;;3.10;1.90;;;;;;;;;;5090905;28;20484;-74
2022/09/16 03:49:14;;;;;;;4.50;2.57;;;;;;;;;;5090944;28;20469;-74
2022/09/16 03:51:41;;;;;;;2.53;1.67;;;;;;;;;;5091233;28;20445;-74
2022/09/16 03:54:09;;;;;;;4.27;2.70;;;;;;;;;;5090157;28;20461;-74
2022/09/16 03:56:36;;;;;;;2.60;2.30;;;;;;;;;;5093882;28;20452;-74
2022/09/16 03:59:03;;;;;;;2.23;2.03;;;;;;;;;;5095027;28;20437;-73
2022/09/16 04:01:32;;;;;;;2.70;2.20;;;;;;;;;;5094364;28;20440;-73
2022/09/16 04:03:59;;;;;;;7.63;2.47;;;;;;;;;;5094374;28;20812;-74
2022/09/16 04:06:26;;;;;;;2.60;1.87;;;;;;;;;;5094393;28;20487;-74
2022/09/16 04:08:53;;;;;;;3.10;1.93;;;;;;;;;;5094582;28;20462;-73
2022/09/16 04:11:20;;;;;;;3.10;2.23;;;;;;;;;;5094146;28;20531;-74
2022/09/16 04:13:47;;;;;;;3.73;2.00;;;;;;;;;;5093797;28;20474;-73
2022/09/16 04:16:19;;;;;;;2.27;1.77;;;;;;;;;;5095096;28;20449;-73
2022/09/16 04:18:48;;;;;;;3.90;2.10;;;;;;;;;;5094225;28;21274;-73
2022/09/16 04:21:15;;;;;;;3.10;2.30;;;;;;;;;;5094452;28;20452;-73
2022/09/16 04:23:42;;;;;;;2.10;1.90;;;;;;;;;;5094285;28;20958;-74
2022/09/16 04:26:10;;;;;;;4.27;2.00;;;;;;;;;;5097958;28;20488;-74
2022/09/16 04:28:38;;;;;;;2.50;1.90;;;;;;;;;;5097123;28;20459;-73
2022/09/16 04:31:06;;;;;;;1.97;1.50;;;;;;;;;;5097202;28;20449;-74
2022/09/16 04:33:34;;;;;;;2.73;1.77;;;;;;;;;;5092987;28;20474;-73
2022/09/16 04:36:07;;;;;;;1.97;1.60;;;;;;;;;;5094587;28;20448;-74
2022/09/16 04:38:35;;;;;;;2.10;1.80;;;;;;;;;;5092982;28;20476;-73
2022/09/16 04:41:03;;;;;;;2.00;1.53;;;;;;;;;;5093720;28;20456;-73
2022/09/16 04:43:30;;;;;;;1.87;1.40;;;;;;;;;;5093124;28;20455;-73
2022/09/16 04:45:57;;;;;;;3.43;1.93;;;;;;;;;;5093491;28;20455;-74
2022/09/16 04:48:25;;;;;;;3.43;2.37;;;;;;;;;;5093049;28;20445;-74
2022/09/16 04:50:52;;;;;;;2.00;1.80;;;;;;;;;;5093727;28;20464;-73
2022/09/16 04:53:21;;;;;;;2.10;1.83;;;;;;;;;;5092421;28;20480;-73
2022/09/16 04:55:48;;;;;;;4.10;2.10;;;;;;;;;;5093420;28;20444;-74
2022/09/16 04:58:15;;;;;;;3.73;1.93;;;;;;;;;;5093533;28;20812;-73
2022/09/16 05:00:42;;;;;;;3.70;2.30;;;;;;;;;;5093135;28;20457;-73
2022/09/16 05:03:10;;;;;;;2.93;1.80;;;;;;;;;;5084401;28;20807;-74
2022/09/16 05:05:37;;;;;;;4.47;2.60;;;;;;;;;;5090677;28;20453;-74
2022/09/16 05:08:04;;;;;;;2.60;1.87;;;;;;;;;;5092588;28;20594;-75
2022/09/16 05:10:32;;;;;;;3.40;2.03;;;;;;;;;;5091086;28;20562;-72
2022/09/16 05:13:00;;;;;;;2.47;1.73;;;;;;;;;;5091586;28;20444;-71
2022/09/16 05:15:27;;;;;;;3.23;2.20;;;;;;;;;;5090675;28;20971;-71
2022/09/16 05:17:54;;;;;;;2.70;2.43;;;;;;;;;;5091763;28;20461;-74
2022/09/16 05:20:21;;;;;;;4.00;2.20;;;;;;;;;;5091009;28;20520;-73
2022/09/16 05:22:49;;;;;;;3.30;2.50;;;;;;;;;;5091076;28;20448;-75
2022/09/16 05:25:17;;;;;;;2.43;2.10;;;;;;;;;;5087446;28;20820;-76
2022/09/16 05:27:46;;;;;;;2.83;2.17;;;;;;;;;;5090224;28;20878;-75
2022/09/16 05:30:14;;;;;;;2.60;1.90;;;;;;;;;;5091715;28;20476;-75
2022/09/16 05:32:41;;;;;;;4.07;2.00;;;;;;;;;;5085275;28;20459;-75
2022/09/16 05:35:10;;;;;;;4.13;2.00;;;;;;;;;;5091633;28;20820;-74
2022/09/16 05:37:36;;;;;;;6.10;2.30;;;15.80;99.90;;;;;;5091241;28;20577;-71
2022/09/16 05:40:04;;;;;;;3.00;2.30;;;;;;;;;;5092679;28;20451;-71
2022/09/16 05:42:31;;;;;;;4.00;2.47;;;;;;;;;;5089825;28;20447;-70
2022/09/16 05:44:59;;;;;;;3.40;2.30;;;;;;;;;;5090991;28;20451;-71
2022/09/16 05:47:26;;;;;;;2.80;1.80;;;;;;;;;;5090491;28;20482;-71
2022/09/16 05:49:54;;;;;;;3.43;2.20;;;;;;;;;;5090890;28;20453;-71
2022/09/16 05:52:21;;;;;;;1.83;1.70;;;;;;;;;;5091467;28;20456;-70
2022/09/16 05:54:48;;;;;;;2.90;2.57;;;;;;;;;;5091739;28;20447;-70
2022/09/16 05:57:15;;;;;;;3.07;1.80;;;;;;;;;;5092161;28;20946;-67
2022/09/16 05:59:42;;;;;;;3.13;2.03;;;;;;;;;;5087274;28;20804;-70
2022/09/16 06:02:12;;;;;;;6.13;2.40;;;;;;;;;;5092484;28;20445;-70
2022/09/16 06:04:39;;;;;;;3.40;2.00;;;;;;;;;;5090703;28;20960;-69
2022/09/16 06:07:06;;;;;;;3.77;2.33;;;;;;;;;;5091852;28;20488;-70
2022/09/16 06:09:33;;;;;;;4.30;2.40;;;;;;;;;;5090007;28;20464;-70
2022/09/16 06:12:00;;;;;;;3.10;2.43;;;;;;;;;;5088815;28;20452;-70
2022/09/16 06:14:27;;;;;;;2.90;1.93;;;;;;;;;;5088886;28;20461;-67
2022/09/16 06:16:54;;;;;;;3.90;2.90;;;;;;;;;;5091351;28;20778;-68
2022/09/16 06:19:23;;;;;;;3.27;2.57;;;;;;;;;;5090268;28;20460;-68
2022/09/16 06:21:50;;;;;;;8.07;2.50;;;;;;;;;;5091998;28;20444;-70
2022/09/16 06:24:18;;;;;;;3.53;2.07;;;;;;;;;;5090927;28;20452;-70
2022/09/16 06:26:46;;;;;;;4.50;2.20;;;;;;;;;;5090789;28;20955;-71
2022/09/16 06:29:13;;;;;;;3.20;2.60;;;;;;;;;;5088635;28;21031;-69
2022/09/16 06:31:41;;;;;;;2.40;2.00;;;;;;;;;;5083728;28;20496;-70
2022/09/16 06:34:08;;;;;;;3.87;2.27;;;;;;;;;;5086129;28;20828;-69
2022/09/16 06:36:37;;;;;;;2.70;2.20;;;;;;;;;;5085322;28;20460;-70
2022/09/16 06:39:05;;;;;;;5.30;2.67;;;;;;;;;;5086960;28;20825;-71
2022/09/16 06:41:33;;;;;;;4.67;2.83;;;;;;;;;;5083937;28;21013;-69
2022/09/16 06:44:00;;;;;;;2.30;2.10;;;;;;;;;;5084595;28;20468;-70
2022/09/16 06:46:28;;;;;;;4.03;3.10;;;;;;;;;;5083489;28;20510;-70
2022/09/16 06:48:56;;;;;;;3.00;1.73;;;;;;;;;;5085715;28;20912;-70
2022/09/16 06:51:24;;;;;;;4.93;2.73;;;;;;;;;;5086104;28;20460;-70
2022/09/16 06:53:55;;;;;;;3.03;2.63;;;;;;;;;;5085688;28;20456;-70
2022/09/16 06:56:22;;;;;;;4.50;2.17;;;;;;;;;;5084351;28;20975;-69
2022/09/16 06:58:50;;;;;;;5.20;2.47;;;;;;;;;;5088392;28;20536;-69
2022/09/16 07:01:18;;;;;;;4.33;2.53;;;;;;;;;;5088799;28;20797;-70
2022/09/16 07:03:46;;;;;;;2.90;2.20;;;;;;;;;;5090550;28;20525;-68
2022/09/16 07:06:14;;;;;;;5.87;2.50;;;;;;;;;;5088350;28;20899;-69
2022/09/16 07:08:42;;;;;;;2.73;2.00;;;;;;;;;;5091105;28;20480;-70
2022/09/16 07:11:11;;;;;;;4.07;2.70;;;;;;;;;;5088064;28;20451;-69
2022/09/16 07:13:39;;;;;;;4.53;2.23;;;;;;;;;;5086304;28;20449;-68
2022/09/16 07:16:07;;;;;;;2.87;2.23;;;;;;;;;;5087043;28;20459;-72
2022/09/16 07:18:35;;;;;;;2.90;2.03;;;;;;;;;;5088646;28;20452;-69
2022/09/16 07:21:03;;;;;;;2.80;1.90;;;;;;;;;;5087994;28;20521;-69
2022/09/16 07:23:31;;;;;;;3.83;2.20;;;;;;;;;;5088265;28;20441;-69
2022/09/16 07:26:01;;;;;;;2.93;2.50;;;;;;;;;;5088600;28;20469;-69
2022/09/16 07:28:30;;;;;;;5.00;2.10;;;;;;;;;;5089799;28;20550;-69
2022/09/16 07:31:00;;;;;;;3.27;2.20;;;;;;;;;;5089533;28;20453;-70
2022/09/16 07:33:27;;;;;;;7.50;2.40;;;;;;;;;;5089717;28;20437;-71
2022/09/16 07:35:58;;;;;;;3.80;2.10;;;;;;;;;;5089825;28;20483;-71
2022/09/16 07:38:25;;;;;;;4.20;2.53;;;;;;;;;;5089969;28;20444;-70
2022/09/16 07:40:52;;;;;;;2.90;2.60;;;;;;;;;;5089574;28;20445;-72
2022/09/16 07:43:20;;;;;;;3.37;1.97;;;;;;;;;;5090218;28;20447;-70
2022/09/16 07:45:55;;;;;;;2.30;2.03;;;;;;;;;;5089517;28;20452;-70
2022/09/16 07:48:23;;;;;;;3.93;1.80;;;;;;;;;;5085947;28;20990;-70
2022/09/16 07:50:54;;;;;;;2.40;2.10;;;;;;;;;;5089617;28;20446;-69
2022/09/16 07:53:22;;;;;;;2.67;2.37;;;;;;;;;;5089996;28;20920;-68
2022/09/16 07:55:49;;;;;;;6.53;2.77;;;;;;;;;;5090168;28;20445;-75
2022/09/16 07:58:16;;;;;;;2.30;2.00;;;;;;;;;;5089610;28;20463;-66
2022/09/16 08:00:44;;;;;;;3.37;2.33;;;;;;;;;;5089567;28;20456;-69
2022/09/16 08:03:12;;;;;;;3.47;2.80;;;;;;;;;;5089872;28;20815;-69
2022/09/16 08:05:39;;;;;;;2.53;2.30;;;;;;;;;;5089203;28;20457;-69
2022/09/16 08:08:06;;;;;;;3.40;1.80;;;;;;;;;;5086817;28;20480;-69
2022/09/16 08:10:35;;;;;;;2.83;2.63;;;;;;;;;;5086938;28;20453;-67
2022/09/16 08:13:02;;;;;;;3.83;2.70;;;;;;;;;;5087620;28;20468;-68
2022/09/16 08:15:29;;;;;;;4.20;2.83;;;;;;;;;;5087159;28;20528;-70
2022/09/16 08:17:57;;;;;;;3.67;2.97;;;;;;;;;;5087307;28;20449;-66
2022/09/16 08:20:27;;;;;;;3.13;2.83;;;;;;;;;;5086790;28;20452;-67
2022/09/16 08:22:54;;;;;;;3.03;2.33;;;;;;;;;;5085612;28;20452;-66
2022/09/16 08:25:21;;;;;;;4.00;3.03;;;;;;;;;;5089055;28;20449;-69
2022/09/16 08:27:48;;;;;;;4.47;2.83;;;;;;;;;;5089858;28;20484;-68
2022/09/16 08:30:15;;;;;;;2.80;2.00;;;14.00;99.90;;;;;;5087536;28;20456;-68
2022/09/16 08:32:42;;;;;;;4.57;3.03;;;;;;;;;;5088342;28;20448;-70
2022/09/16 08:35:09;;;;;;;6.53;3.80;;;;;;;;;;5089415;28;20461;-69
2022/09/16 08:37:37;;;;;;;4.13;2.47;;;;;;;;;;5088703;28;20457;-69
2022/09/16 08:40:05;;;;;;;3.63;3.03;;;;;;;;;;5088706;28;20458;-68
2022/09/16 08:42:39;;;;;;;2.83;2.40;;;;;;;;;;5089919;28;20582;-70
2022/09/16 08:45:13;;;;;;;3.03;2.30;;;;;;;;;;5092122;28;20441;-70
2022/09/16 08:47:49;;;;;;;2.60;2.10;;;;;;;;;;5092854;28;20506;-69
2022/09/16 08:50:18;;;;;;;5.17;2.63;;;;;;;;;;5092333;28;20494;-68
2022/09/16 08:52:47;;;;;;;5.73;2.47;;;;;;;;;;5092760;28;20451;-69
2022/09/16 08:55:18;;;;;;;3.13;2.70;;;;;;;;;;5092873;28;20455;-68
2022/09/16 08:57:49;;;;;;;3.60;2.60;;;;;;;;;;5092828;28;20448;-68
2022/09/16 09:00:17;;;;;;;4.40;2.73;;;;;;;;;;5091849;28;20444;-68
2022/09/16 09:02:48;;;;;;;3.17;2.83;;;;;;;;;;5092999;28;20479;-70
2022/09/16 09:05:17;;;;;;;3.63;2.53;;;;;;;;;;5091411;28;20464;-67
2022/09/16 09:08:04;;;;;;;5.33;2.83;;;;;;;;;;5092384;28;20488;-68
2022/09/16 09:10:35;;;;;;;3.20;2.20;;;;;;;;;;5090705;28;20443;-68
2022/09/16 09:13:09;;;;;;;3.50;2.50;;;;;;;;;;5093193;28;20445;-68
2022/09/16 09:15:41;;;;;;;3.37;2.20;;;;;;;;;;5088653;28;20437;-68
2022/09/16 09:18:16;;;;;;;3.57;2.00;;;;;;;;;;5091931;28;20514;-69
2022/09/16 09:20:46;;;;;;;2.40;2.00;;;;;;;;;;5090504;28;20437;-68
2022/09/16 09:23:25;;;;;;;9.77;1.73;;;;;;;;;;5091488;28;20449;-68
2022/09/16 09:25:55;;;;;;;2.27;1.50;;;;;;;;;;5092543;28;20449;-68
2022/09/16 09:28:28;;;;;;;2.90;2.13;;;;;;;;;;5090207;28;20990;-67
2022/09/16 09:31:01;;;;;;;2.13;1.93;;;;;;;;;;5091812;28;20526;-69
2022/09/16 09:33:33;;;;;;;2.23;1.90;;;;;;;;;;5091614;28;20476;-68
2022/09/16 09:36:12;;;;;;;4.33;2.40;;;;;;;;;;5092314;28;20554;-69
2022/09/16 09:38:50;;;;;;;3.23;2.17;;;;;;;;;;5090876;28;20456;-68
2022/09/16 09:41:19;;;;;;;2.77;2.10;;;;;;;;;;5088914;28;20445;-68
2022/09/16 09:43:48;;;;;;;2.77;2.17;;;;;;;;;;5092155;28;20445;-68
2022/09/16 09:46:18;;;;;;;2.30;2.07;;;;;;;;;;5091489;28;20455;-67
2022/09/16 09:48:47;;;;;;;2.13;1.80;;;;;;;;;;5088715;28;20479;-69
2022/09/16 09:51:17;;;;;;;3.27;2.40;;;;;;;;;;5091540;28;20449;-69
2022/09/16 09:53:48;;;;;;;2.37;2.07;;;;;;;;;;5090789;28;20448;-68
2022/09/16 09:56:18;;;;;;;2.90;2.00;;;;;;;;;;5090358;28;20557;-67
2022/09/16 09:58:49;;;;;;;2.17;1.77;;;;;;;;;;5091666;28;20942;-68
2022/09/16 10:01:17;;;;;;;2.23;2.03;;;;;;;;;;5090888;28;20445;-67
2022/09/16 10:03:44;;;;;;;1.73;1.63;;;;;;;;;;5091198;28;20873;-69
2022/09/16 10:06:12;;;;;;;3.90;2.17;;;;;;;;;;5091181;28;20506;-69
2022/09/16 10:08:44;;;;;;;4.53;2.23;;;;;;;;;;5089910;28;20491;-69
2022/09/16 10:11:19;;;;;;;2.10;1.90;;;;;;;;;;5088185;28;20527;-70
2022/09/16 10:13:50;;;;;;;2.60;1.87;;;;;;;;;;5090247;28;20789;-70
2022/09/16 10:16:19;;;;;;;2.33;2.13;;;;;;;;;;5089635;28;20484;-69
2022/09/16 10:18:53;;;;;;;2.33;2.10;;;;;;;;;;5091121;28;20792;-68
2022/09/16 10:21:20;;;;;;;2.40;2.17;;;;;;;;;;5080701;28;20453;-70
2022/09/16 10:23:54;;;;;;;3.70;1.90;;;;;;;;;;5089345;28;20488;-69
2022/09/16 10:26:23;;;;;;;2.77;2.20;;;;;;;;;;5089134;28;20827;-69
2022/09/16 10:28:54;;;;;;;2.00;1.80;;;;;;;;;;5089063;28;20822;-69
2022/09/16 10:31:21;;;;;;;3.33;2.10;;;;;;;;;;5090118;28;20452;-69
2022/09/16 10:33:48;;;;;;;4.07;2.10;;;;;;;;;;5082819;28;20940;-69
2022/09/16 10:36:19;;;;;;;2.90;1.93;;;;;;;;;;5089772;28;20444;-67
2022/09/16 10:38:51;;;;;;;3.57;1.87;;;;;;;;;;5090365;28;20452;-68
2022/09/16 10:41:21;;;;;;;2.17;1.97;;;;;;;;;;5089020;28;20441;-70
2022/09/16 10:43:51;;;;;;;5.80;1.73;;;;;;;;;;5088366;28;20780;-69
2022/09/16 10:46:19;;;;;;;3.10;1.80;;;;;;;;;;5089413;28;20452;-69
2022/09/16 10:48:47;;;;;;;1.97;1.77;;;;;;;;;;5091050;28;20584;-69
2022/09/16 10:51:22;;;;;;;4.00;1.53;;;;;;;;;;5087437;28;20559;-69
2022/09/16 10:53:52;;;;;;;4.40;2.00;;;;;;;;;;5090985;28;20436;-69
2022/09/16 10:56:20;;;;;;;3.20;2.37;;;;;;;;;;5090390;28;20830;-68
2022/09/16 10:58:49;;;;;;;2.13;1.67;;;;;;;;;;5082749;28;20951;-69
2022/09/16 11:01:26;;;;;;;4.43;2.50;;;;;;;;;;5085458;28;20449;-68
2022/09/16 11:04:16;;;;;;;3.10;1.50;;;;;;;;;;5087952;28;20436;-69
2022/09/16 11:06:50;;;;;;;4.13;2.00;;;;;;;;;;5071981;28;20464;-69
2022/09/16 11:09:22;;;;;;;3.23;2.03;;;;;;;;;;5086339;28;21014;-68
2022/09/16 11:11:54;;;;;;;3.20;2.13;;;;;;;;;;5086874;28;20454;-69
2022/09/16 11:14:29;;;;;;;2.90;2.20;;;;;;;;;;5087120;28;20955;-69
2022/09/16 11:17:10;;;;;;;6.50;2.17;;;;;;;;;;5087281;28;20441;-69
2022/09/16 11:19:42;;;;;;;3.90;1.87;;;;;;;;;;5087725;28;20449;-68
2022/09/16 11:22:14;;;;;;;2.10;1.73;;;;;;;;;;5087451;28;20498;-69
2022/09/16 11:24:52;;;;;;;3.10;2.00;;;;;;;;;;5088643;28;20798;-69
2022/09/16 11:27:23;;;;;;;8.73;6.20;;;;;;;;;;5087851;28;20596;-69
2022/09/16 11:29:57;;;;;;;3.80;2.23;;;;;;;;;;5088263;28;20488;-68
2022/09/16 11:32:30;;;;;;;2.33;1.53;;;;;;;;;;5088188;28;20448;-68
2022/09/16 11:35:03;;;;;;;2.10;1.30;;;;;;;;;;5089538;28;20457;-67
2022/09/16 11:37:33;;;;;;;3.20;1.30;;;;;;;;;;5090068;28;20441;-69
2022/09/16 11:40:06;;;;;;;4.07;1.40;;;;;;;;;;5089067;28;20483;-69
2022/09/16 11:42:36;;;;;;;1.60;1.37;;;;;;;;;;5089828;28;20445;-69
2022/09/16 11:45:10;;;;;;;2.43;1.60;;;;;;;;;;5089939;28;20775;-69
2022/09/16 11:47:50;;;;;;;3.20;1.47;;;;;;;;;;5086961;28;20456;-68
2022/09/16 11:50:29;;;;;;;1.87;1.70;;;;;;;;;;5089206;28;20460;-68
2022/09/16 11:53:14;;;;;;;1.70;1.60;;;;;;;;;;5089433;28;20433;-68
2022/09/16 11:55:47;;;;;;;2.47;1.30;;;;;;;;;;5047244;28;20456;-68
2022/09/16 11:58:21;;;;;;;2.07;1.57;;;;;;;;;;5078576;28;20467;-68
2022/09/16 12:00:50;;;;;;;1.93;1.20;;;;;;;;;;5088844;28;20441;-69
2022/09/16 12:03:23;;;;;;;5.17;1.83;;;;;;;;;;5080138;28;20960;-68
2022/09/16 12:05:53;;;;;;;2.00;1.63;;;;;;;;;;5088904;28;20844;-68
2022/09/16 12:08:23;;;;;;;3.57;1.30;;;;;;;;;;5087040;28;20539;-68
2022/09/16 12:10:52;;;;;;;1.93;1.20;;;;;;;;;;5088432;28;20467;-69
2022/09/16 12:13:22;;;;;;;1.70;1.37;;;;;;;;;;5087922;28;20445;-69
2022/09/16 12:15:52;;;;;;;1.10;1.00;;;;;;;;;;5088527;28;20889;-68
2022/09/16 12:18:21;;;;;;;1.70;1.50;;;;;;;;;;5093027;28;20447;-69
2022/09/16 12:20:51;;;;;;;1.23;1.13;;;;;;;;;;5092826;28;20452;-69
2022/09/16 12:23:19;;;;;;;4.73;1.50;;;;;;;;;;5092475;28;20509;-68
2022/09/16 12:25:48;;;;;;;4.03;1.33;;;;;;;;;;5093474;28;20456;-68
2022/09/16 12:28:17;;;;;;;1.67;1.07;;;;;;;;;;5092633;28;20456;-67
2022/09/16 12:30:46;;;;;;;1.50;1.40;;;;;;;;;;5092848;28;20443;-69
2022/09/16 12:33:17;;;;;;;2.07;1.23;;;;;;;;;;5093700;28;20459;-69
2022/09/16 12:35:48;;;;;;;2.93;1.00;;;;;;;;;;5091167;28;20457;-73
2022/09/16 12:38:16;;;;;;;2.07;1.47;;;;;;;;;;5090046;28;20833;-66
2022/09/16 12:40:52;;;;;;;5.07;1.30;;;;;;;;;;5092487;28;20468;-69
2022/09/16 12:43:32;;;;;;;1.60;1.30;;;;;;;;;;5092495;28;20440;-68
2022/09/16 12:46:22;;;;;;;1.63;0.90;;;;;;;;;;5092763;28;20445;-68
2022/09/16 12:49:10;;;;;;;1.47;1.00;;;;;;;;;;5085992;28;20468;-68
2022/09/16 12:51:44;;;;;;;2.33;1.10;;;;;;;;;;5092129;28;20485;-69
2022/09/16 12:54:24;;;;;;;2.70;1.50;;;;;;;;;;5093442;28;20467;-68
2022/09/16 12:57:03;;;;;;;1.97;1.17;;;;;;;;;;5092436;28;20451;-69
2022/09/16 12:59:36;;;;;;;4.50;1.23;;;;;;;;;;5091553;28;20872;-68
2022/09/16 13:02:10;;;;;;;1.50;1.40;;;;;;;;;;5092061;28;20433;-69
2022/09/16 13:04:40;;;;;;;1.23;0.97;;;;;;;;;;5087081;28;20459;-69
2022/09/16 13:07:08;;;;;;;4.40;1.90;;;;;;;;;;5092830;28;20440;-69
2022/09/16 13:09:37;;;;;;;1.47;1.37;;;;;;;;;;5089973;28;20715;-68
2022/09/16 13:12:05;;;;;;;1.93;1.20;;;;;;;;;;5090789;28;20452;-69
2022/09/16 13:14:34;;;;;;;1.50;1.00;;;;;;;;;;5090654;28;20456;-69
2022/09/16 13:17:02;;;;;;;1.33;1.20;;;;;;;;;;5090612;28;20956;-69
2022/09/16 13:19:34;;;;;;;2.27;1.33;;;;;;;;;;5090089;28;20502;-69
2022/09/16 13:22:06;;;;;;;1.50;1.37;;;;;;;;;;5090566;28;20936;-69
2022/09/16 13:24:37;;;;;;;6.63;1.57;;;;;;;;;;5090030;28;20452;-69
2022/09/16 13:27:23;;;;;;;1.80;1.50;;;;;;;;;;5089943;28;20484;-69
2022/09/16 13:29:50;;;;;;;2.40;1.30;;;;;;;;;;5091526;28;20791;-69
2022/09/16 13:32:27;;;;;;;1.70;1.27;;;;;;;;;;5085691;28;20541;-68
2022/09/16 13:35:05;;;;;;;2.60;1.57;;;;;;;;;;5091862;28;20540;-69
2022/09/16 13:37:33;;;;;;;2.07;1.60;;;;;;;;;;5090247;28;20457;-69
2022/09/16 13:40:09;;;;;;;1.37;1.27;;;;;;;;;;5090848;28;20473;-69
2022/09/16 13:42:36;;;;;;;1.40;1.27;;;;;;;;;;5091326;28;20452;-69
2022/09/16 13:45:04;;;;;;;3.50;1.50;;;;;;;;;;5091435;28;20445;-70
2022/09/16 13:47:33;;;;;;;1.30;1.10;;;;;;;;;;5086172;28;20552;-68
2022/09/16 13:50:02;;;;;;;1.67;1.43;;;;;;;;;;5086672;28;20609;-70
2022/09/16 13:52:30;;;;;;;1.47;1.10;;;;;;;;;;5085274;28;20536;-69
2022/09/16 13:55:01;;;;;;;1.23;1.13;;;;;;;;;;5087153;28;20449;-69
2022/09/16 13:57:33;;;;;;;1.70;1.33;;;;;;;;;;5086938;28;20441;-69
2022/09/16 14:00:05;;;;;;;1.67;1.30;;;;;;;;;;5090321;28;20475;-71
2022/09/16 14:02:37;;;;;;;1.40;1.20;;;;;;;;;;5089423;28;20479;-70
2022/09/16 14:05:12;;;;;;;1.10;1.00;;;;;;;;;;5089699;28;20469;-70
2022/09/16 14:07:43;;;;;;;9.50;1.23;;;;;;;;;;5089563;28;20737;-69
2022/09/16 14:10:15;;;;;;;3.77;1.37;;;;;;;;;;5090395;28;20487;-70
2022/09/16 14:12:45;;;;;;;4.47;1.20;;;;;;;;;;5089257;28;20840;-69
2022/09/16 14:15:14;;;;;;;1.33;1.23;;;;;;;;;;5086523;28;20452;-69
2022/09/16 14:17:43;;;;;;;2.53;1.60;;;;;;;;;;5089981;28;20441;-70
2022/09/16 14:20:14;;;;;;;2.37;1.40;;;;;;;;;;5088749;28;20813;-69
2022/09/16 14:22:43;;;;;;;1.17;1.07;;;;;;;;;;5088667;28;20445;-68
2022/09/16 14:28:17;;;;;;;2.10;1.50;;;;;;;;;;5087430;28;20511;-67
2022/09/16 14:30:51;;;;;;;2.57;1.00;;;;;;;;;;5087034;28;20440;-67
2022/09/16 14:33:20;;;;;;;2.33;1.40;;;;;;;;;;5086474;28;20978;-67
2022/09/16 14:35:47;;;;;;;1.77;1.00;;;;;;;;;;5087267;28;20516;-67
2022/09/16 14:38:15;;;;;;;1.30;1.10;;;;;;;;;;5087781;28;20452;-67
2022/09/16 14:40:43;;;;;;;1.97;1.40;;;;;;;;;;5087005;28;20441;-67
2022/09/16 14:43:15;;;;;;;1.63;1.33;;;;;;;;;;5087467;28;20457;-68
2022/09/16 14:45:45;;;;;;;2.60;1.20;;;;;;;;;;5087315;28;20445;-68
2022/09/16 14:48:14;;;;;;;1.10;0.97;;;;;;;;;;5086480;28;20448;-68
2022/09/16 14:50:43;;;;;;;1.40;0.97;;;;;;;;;;5085384;28;20879;-68
2022/09/16 14:53:23;;;;;;;1.47;0.90;;;;;;;;;;5087210;28;20445;-68
2022/09/16 14:55:50;;;;;;;0.90;0.77;;;;;;;;;;5087162;28;20448;-68
2022/09/16 14:58:19;;;;;;;1.57;0.93;;;;;;;;;;5086822;28;20452;-68
2022/09/16 15:00:48;;;;;;;1.53;1.00;;;;;;;;;;5086493;28;20444;-68
2022/09/16 15:03:19;;;;;;;2.23;1.30;;;;;;;;;;5078722;28;20457;-68